createdAt,value
2022-12-23T00:00:44.082Z,4.13
2022-12-23T00:01:47.151Z,4.03
2022-12-23T00:02:50.173Z,4.32
2022-12-23T00:03:56.281Z,4.22
2022-12-23T00:04:59.727Z,4.35
2022-12-23T00:06:07.691Z,3.58
2022-12-23T00:07:10.081Z,3.90
2022-12-23T00:08:12.435Z,4.00
2022-12-23T00:09:15.003Z,3.92
2022-12-23T00:10:17.447Z,4.20
2022-12-23T00:11:20.708Z,3.88
2022-12-23T00:12:41.806Z,4.20
2022-12-23T00:14:03.032Z,4.22
2022-12-23T00:15:05.934Z,3.65
2022-12-23T00:16:11.303Z,4.25
2022-12-23T00:17:28.857Z,3.88
2022-12-23T00:18:31.458Z,3.72
2022-12-23T00:19:33.805Z,3.72
2022-12-23T00:20:36.122Z,4.07
2022-12-23T00:21:38.416Z,3.78
2022-12-23T00:22:59.358Z,4.10
2022-12-23T00:24:01.827Z,4.30
2022-12-23T00:25:04.354Z,3.60
2022-12-23T00:26:12.634Z,4.10
2022-12-23T00:27:15.025Z,4.68
2022-12-23T00:28:20.127Z,3.85
2022-12-23T00:29:22.444Z,3.53
2022-12-23T00:30:24.849Z,3.30
2022-12-23T00:31:27.371Z,3.53
2022-12-23T00:32:29.784Z,3.58
2022-12-23T00:33:35.467Z,3.90
2022-12-23T00:34:37.829Z,3.53
2022-12-23T00:35:40.307Z,4.13
2022-12-23T00:36:42.972Z,3.47
2022-12-23T00:37:45.400Z,3.97
2022-12-23T00:39:06.587Z,3.40
2022-12-23T00:40:31.989Z,3.17
2022-12-23T00:41:53.069Z,3.63
2022-12-23T00:42:55.390Z,3.10
2022-12-23T00:43:58.604Z,2.97
2022-12-23T00:45:15.976Z,3.75
2022-12-23T00:46:18.874Z,3.28
2022-12-23T00:47:39.878Z,3.25
2022-12-23T00:49:01.001Z,3.47
2022-12-23T00:50:03.631Z,3.47
2022-12-23T00:51:06.486Z,3.80
2022-12-23T00:52:15.433Z,3.58
2022-12-23T00:53:17.790Z,2.85
2022-12-23T00:54:20.168Z,3.50
2022-12-23T00:55:22.642Z,2.88
2022-12-23T00:56:24.924Z,3.17
2022-12-23T00:57:27.233Z,2.58
2022-12-23T00:58:29.638Z,3.08
2022-12-23T00:59:31.990Z,3.20
2022-12-23T01:00:53.244Z,3.20
2022-12-23T01:02:14.535Z,3.38
2022-12-23T01:03:36.859Z,3.10
2022-12-23T01:04:58.053Z,3.35
2022-12-23T01:06:01.688Z,3.15
2022-12-23T01:07:04.897Z,2.85
2022-12-23T01:08:12.009Z,3.15
2022-12-23T01:09:14.692Z,3.03
2022-12-23T01:10:17.005Z,2.90
2022-12-23T01:11:19.391Z,3.03
2022-12-23T01:12:21.861Z,2.63
2022-12-23T01:13:24.285Z,2.50
2022-12-23T01:14:27.145Z,2.63
2022-12-23T01:15:29.854Z,2.97
2022-12-23T01:16:32.301Z,2.58
2022-12-23T01:17:34.636Z,2.78
2022-12-23T01:18:37.679Z,3.00
2022-12-23T01:19:40.031Z,2.55
2022-12-23T01:20:42.397Z,2.95
2022-12-23T01:21:44.957Z,3.05
2022-12-23T01:22:47.315Z,2.92
2022-12-23T01:23:49.705Z,2.55
2022-12-23T01:24:52.088Z,2.42
2022-12-23T01:26:02.576Z,2.83
2022-12-23T01:27:04.907Z,2.97
2022-12-23T01:28:07.200Z,2.90
2022-12-23T01:29:09.544Z,3.22
2022-12-23T01:30:12.121Z,2.50
2022-12-23T01:31:14.558Z,2.35
2022-12-23T01:32:16.948Z,2.72
2022-12-23T01:33:19.426Z,2.70
2022-12-23T01:34:21.730Z,2.55
2022-12-23T01:35:24.126Z,2.40
2022-12-23T01:36:26.450Z,2.38
2022-12-23T01:37:28.803Z,2.25
2022-12-23T01:38:31.240Z,2.80
2022-12-23T01:39:33.521Z,2.95
2022-12-23T01:40:41.172Z,2.50
2022-12-23T01:42:02.161Z,2.60
2022-12-23T01:43:04.761Z,2.70
2022-12-23T01:44:44.502Z,2.33
2022-12-23T01:45:47.133Z,2.35
2022-12-23T01:46:49.767Z,2.90
2022-12-23T01:48:04.164Z,2.30
2022-12-23T01:49:06.504Z,2.60
2022-12-23T01:50:14.574Z,2.72
2022-12-23T01:51:25.703Z,2.50
2022-12-23T01:52:29.263Z,2.95
2022-12-23T01:53:43.231Z,7.28
2022-12-23T01:54:45.848Z,5.90
2022-12-23T01:55:52.978Z,10.05
2022-12-23T01:56:55.362Z,6.55
2022-12-23T01:58:08.918Z,5.38
2022-12-23T01:59:34.893Z,3.67
2022-12-23T02:00:57.576Z,3.50
2022-12-23T02:02:19.259Z,2.90
2022-12-23T02:03:57.396Z,3.03
2022-12-23T02:05:00.467Z,2.67
2022-12-23T02:06:23.695Z,2.50
2022-12-23T02:07:45.379Z,2.38
2022-12-23T02:10:09.115Z,2.08
2022-12-23T02:11:30.410Z,2.10
2022-12-23T02:12:45.561Z,2.03
2022-12-23T02:14:39.922Z,2.50
2022-12-23T02:16:09.941Z,1.92
2022-12-23T02:17:25.205Z,2.17
2022-12-23T02:19:11.407Z,2.40
2022-12-23T02:20:55.352Z,2.08
2022-12-23T02:22:26.963Z,2.78
2022-12-23T02:23:57.168Z,32.53
2022-12-23T02:25:21.048Z,32.13
2022-12-23T02:26:48.034Z,26.95
2022-12-23T02:28:05.239Z,12.48
2022-12-23T02:29:50.664Z,10.25
2022-12-23T02:31:10.423Z,8.70
2022-12-23T02:32:49.846Z,8.80
2022-12-23T02:33:59.637Z,8.45
2022-12-23T02:35:29.086Z,7.30
2022-12-23T02:36:52.363Z,7.18
2022-12-23T02:38:13.807Z,7.35
2022-12-23T02:39:50.284Z,6.93
2022-12-23T02:41:13.714Z,6.78
2022-12-23T02:42:19.329Z,6.10
2022-12-23T02:43:30.525Z,6.05
2022-12-23T02:45:10.272Z,6.20
2022-12-23T02:46:25.956Z,6.07
2022-12-23T02:47:36.316Z,5.68
2022-12-23T02:48:47.563Z,6.45
2022-12-23T02:49:55.741Z,5.82
2022-12-23T02:51:00.119Z,6.13
2022-12-23T02:52:13.291Z,5.75
2022-12-23T02:53:37.470Z,5.15
2022-12-23T02:55:05.617Z,5.65
2022-12-23T02:56:10.988Z,5.30
2022-12-23T02:57:16.597Z,5.68
2022-12-23T02:58:22.198Z,5.45
2022-12-23T02:59:28.679Z,5.47
2022-12-23T03:00:31.966Z,4.85
2022-12-23T03:01:35.691Z,4.65
2022-12-23T03:02:40.118Z,4.80
2022-12-23T03:03:44.156Z,5.53
2022-12-23T03:04:46.574Z,4.90
2022-12-23T03:05:51.197Z,4.63
2022-12-23T03:06:55.458Z,4.75
2022-12-23T03:08:02.698Z,4.90
2022-12-23T03:09:05.724Z,4.53
2022-12-23T03:10:23.617Z,4.38
2022-12-23T03:11:40.213Z,3.75
2022-12-23T03:13:11.804Z,4.05
2022-12-23T03:14:53.433Z,4.20
2022-12-23T03:16:19.570Z,4.47
2022-12-23T03:17:54.119Z,3.63
2022-12-23T03:19:10.108Z,3.88
2022-12-23T03:20:12.405Z,4.35
2022-12-23T03:21:42.404Z,3.70
2022-12-23T03:23:14.920Z,3.88
2022-12-23T03:25:02.916Z,3.40
2022-12-23T03:26:14.437Z,3.33
2022-12-23T03:27:19.765Z,3.45
2022-12-23T03:28:49.344Z,3.72
2022-12-23T03:30:08.512Z,3.53
2022-12-23T03:31:17.209Z,3.30
2022-12-23T03:32:21.367Z,3.30
2022-12-23T03:33:28.929Z,3.53
2022-12-23T03:34:37.416Z,3.50
2022-12-23T03:35:51.430Z,3.58
2022-12-23T03:36:57.752Z,3.50
2022-12-23T03:38:02.623Z,3.40
2022-12-23T03:39:10.659Z,3.05
2022-12-23T03:40:20.634Z,3.40
2022-12-23T03:41:33.794Z,3.65
2022-12-23T03:42:39.822Z,3.10
2022-12-23T03:43:50.979Z,3.33
2022-12-23T03:45:19.696Z,3.10
2022-12-23T03:46:23.080Z,2.97
2022-12-23T03:47:29.693Z,3.25
2022-12-23T03:48:46.641Z,3.10
2022-12-23T03:50:06.160Z,3.13
2022-12-23T03:51:15.450Z,3.20
2022-12-23T03:52:24.071Z,2.90
2022-12-23T03:53:32.155Z,3.08
2022-12-23T03:54:40.952Z,2.83
2022-12-23T03:55:50.607Z,2.83
2022-12-23T03:57:01.404Z,2.95
2022-12-23T03:58:21.307Z,3.00
2022-12-23T03:59:36.243Z,3.22
2022-12-23T04:00:48.052Z,2.42
2022-12-23T04:01:58.958Z,3.22
2022-12-23T04:03:13.356Z,2.83
2022-12-23T04:04:43.459Z,2.58
2022-12-23T04:05:52.522Z,2.70
2022-12-23T04:07:04.675Z,2.67
2022-12-23T04:08:16.118Z,2.75
2022-12-23T04:09:22.430Z,2.90
2022-12-23T04:10:25.624Z,2.63
2022-12-23T04:11:29.616Z,2.88
2022-12-23T04:12:32.283Z,2.78
2022-12-23T04:13:34.880Z,2.30
2022-12-23T04:14:38.295Z,2.17
2022-12-23T04:15:41.656Z,2.60
2022-12-23T04:16:44.538Z,2.30
2022-12-23T04:17:47.600Z,2.75
2022-12-23T04:18:50.253Z,2.60
2022-12-23T04:19:53.324Z,2.75
2022-12-23T04:20:55.767Z,2.45
2022-12-23T04:21:58.451Z,2.42
2022-12-23T04:23:00.969Z,2.38
2022-12-23T04:24:03.429Z,2.42
2022-12-23T04:25:06.520Z,2.15
2022-12-23T04:26:08.850Z,2.47
2022-12-23T04:27:14.280Z,2.20
2022-12-23T04:28:18.121Z,2.40
2022-12-23T04:29:20.429Z,2.80
2022-12-23T04:30:26.610Z,2.38
2022-12-23T04:31:32.175Z,2.20
2022-12-23T04:32:34.611Z,2.58
2022-12-23T04:33:36.954Z,1.98
2022-12-23T04:34:39.391Z,2.05
2022-12-23T04:35:41.794Z,2.20
2022-12-23T04:36:44.267Z,2.33
2022-12-23T04:37:46.603Z,2.72
2022-12-23T04:38:48.995Z,2.60
2022-12-23T04:39:51.422Z,2.65
2022-12-23T04:40:53.854Z,2.88
2022-12-23T04:41:56.373Z,16.40
2022-12-23T04:42:58.936Z,14.88
2022-12-23T04:44:01.324Z,25.17
2022-12-23T04:45:04.076Z,20.17
2022-12-23T04:46:06.689Z,23.38
2022-12-23T04:47:09.062Z,19.67
2022-12-23T04:48:11.520Z,17.55
2022-12-23T04:49:14.093Z,16.92
2022-12-23T04:50:17.181Z,18.15
2022-12-23T04:51:19.527Z,15.80
2022-12-23T04:52:21.945Z,15.57
2022-12-23T04:53:24.332Z,16.38
2022-12-23T04:54:26.752Z,16.10
2022-12-23T04:55:29.098Z,13.88
2022-12-23T04:56:31.415Z,14.30
2022-12-23T04:57:33.739Z,15.68
2022-12-23T04:58:36.254Z,13.55
2022-12-23T04:59:38.555Z,14.40
2022-12-23T05:00:40.949Z,14.48
2022-12-23T05:01:43.396Z,13.25
2022-12-23T05:02:46.054Z,14.05
2022-12-23T05:03:48.478Z,14.32
2022-12-23T05:04:50.735Z,13.80
2022-12-23T05:05:53.195Z,13.85
2022-12-23T05:06:55.556Z,13.00
2022-12-23T05:08:05.855Z,12.93
2022-12-23T05:09:08.581Z,15.40
2022-12-23T05:10:11.452Z,13.85
2022-12-23T05:11:13.930Z,13.40
2022-12-23T05:12:16.375Z,13.13
2022-12-23T05:13:18.848Z,12.57
2022-12-23T05:14:21.257Z,11.73
2022-12-23T05:15:23.782Z,11.52
2022-12-23T05:16:26.384Z,5.65
2022-12-23T05:17:28.904Z,6.10
2022-12-23T05:18:31.177Z,38.65
2022-12-23T05:19:33.501Z,12.95
2022-12-23T05:20:35.771Z,13.75
2022-12-23T05:21:38.143Z,14.05
2022-12-23T05:22:40.454Z,15.88
2022-12-23T05:23:42.777Z,15.07
2022-12-23T05:24:45.319Z,14.10
2022-12-23T05:25:53.255Z,13.38
2022-12-23T05:26:59.840Z,12.85
2022-12-23T05:28:03.249Z,12.32
2022-12-23T05:29:06.176Z,13.18
2022-12-23T05:30:09.229Z,12.45
2022-12-23T05:31:12.649Z,11.73
2022-12-23T05:32:15.008Z,10.70
2022-12-23T05:33:17.435Z,11.18
2022-12-23T05:34:20.086Z,12.05
2022-12-23T05:35:24.326Z,11.88
2022-12-23T05:36:26.754Z,11.70
2022-12-23T05:37:29.132Z,12.23
2022-12-23T05:38:31.659Z,10.82
2022-12-23T05:39:34.004Z,12.40
2022-12-23T05:40:38.579Z,9.38
2022-12-23T05:41:41.049Z,30.70
2022-12-23T05:42:43.453Z,8.07
2022-12-23T05:43:45.781Z,79.40
2022-12-23T05:44:48.176Z,18.25
2022-12-23T05:45:51.963Z,40.85
2022-12-23T05:46:54.374Z,103.47
2022-12-23T05:47:56.730Z,84.45
2022-12-23T05:48:59.151Z,71.00
2022-12-23T05:50:01.869Z,61.40
2022-12-23T05:51:05.842Z,57.58
2022-12-23T05:52:08.248Z,49.55
2022-12-23T05:53:10.769Z,41.45
2022-12-23T05:54:13.109Z,38.35
2022-12-23T05:55:15.589Z,30.77
2022-12-23T05:56:17.921Z,26.70
2022-12-23T05:57:20.278Z,24.20
2022-12-23T05:58:22.815Z,22.60
2022-12-23T05:59:30.593Z,20.67
2022-12-23T06:00:34.072Z,20.05
2022-12-23T06:01:36.511Z,18.92
2022-12-23T06:02:39.119Z,18.05
2022-12-23T06:03:41.772Z,17.63
2022-12-23T06:04:44.299Z,16.70
2022-12-23T06:05:50.623Z,16.23
2022-12-23T06:06:53.038Z,15.15
2022-12-23T06:07:55.419Z,15.85
2022-12-23T06:09:00.106Z,14.93
2022-12-23T06:10:02.929Z,15.57
2022-12-23T06:11:05.768Z,14.45
2022-12-23T06:12:08.288Z,14.65
2022-12-23T06:13:10.700Z,15.32
2022-12-23T06:14:13.108Z,16.25
2022-12-23T06:15:15.701Z,17.17
2022-12-23T06:16:18.491Z,43.03
2022-12-23T06:17:20.888Z,18.27
2022-12-23T06:18:23.344Z,57.05
2022-12-23T06:19:26.916Z,53.08
2022-12-23T06:20:29.315Z,52.80
2022-12-23T06:21:31.944Z,52.53
2022-12-23T06:22:34.368Z,43.85
2022-12-23T06:23:36.811Z,40.72
2022-12-23T06:24:39.790Z,31.92
2022-12-23T06:25:42.228Z,26.13
2022-12-23T06:26:44.642Z,25.88
2022-12-23T06:27:47.077Z,23.70
2022-12-23T06:28:49.438Z,20.98
2022-12-23T06:29:51.802Z,20.02
2022-12-23T06:30:55.057Z,18.90
2022-12-23T06:31:57.579Z,18.98
2022-12-23T06:33:00.027Z,18.25
2022-12-23T06:34:02.593Z,18.65
2022-12-23T06:35:05.584Z,19.80
2022-12-23T06:36:08.394Z,17.80
2022-12-23T06:37:11.013Z,19.05
2022-12-23T06:38:13.574Z,16.88
2022-12-23T06:39:16.172Z,19.10
2022-12-23T06:40:18.954Z,16.45
2022-12-23T06:41:21.562Z,16.65
2022-12-23T06:42:24.221Z,17.65
2022-12-23T06:43:27.001Z,20.90
2022-12-23T06:44:29.648Z,13.52
2022-12-23T06:45:32.195Z,12.95
2022-12-23T06:46:34.865Z,12.07
2022-12-23T06:47:37.745Z,19.27
2022-12-23T06:48:40.353Z,17.65
2022-12-23T06:49:42.866Z,17.92
2022-12-23T06:50:46.339Z,17.88
2022-12-23T06:51:49.069Z,16.50
2022-12-23T06:52:51.644Z,15.98
2022-12-23T06:53:54.332Z,14.45
2022-12-23T06:54:56.910Z,14.50
2022-12-23T06:56:02.661Z,14.80
2022-12-23T06:57:05.388Z,13.45
2022-12-23T06:58:08.804Z,15.23
2022-12-23T06:59:11.600Z,13.65
2022-12-23T07:00:14.872Z,14.32
2022-12-23T07:01:17.463Z,16.63
2022-12-23T07:02:20.487Z,13.82
2022-12-23T07:03:23.009Z,14.93
2022-12-23T07:04:25.432Z,13.40
2022-12-23T07:05:31.908Z,13.95
2022-12-23T07:06:37.648Z,15.85
2022-12-23T07:07:40.034Z,15.27
2022-12-23T07:08:42.329Z,16.20
2022-12-23T07:09:44.621Z,11.38
2022-12-23T07:10:47.079Z,13.60
2022-12-23T07:11:49.448Z,39.72
2022-12-23T07:12:51.689Z,42.72
2022-12-23T07:13:54.031Z,29.92
2022-12-23T07:14:56.468Z,22.67
2022-12-23T07:15:59.357Z,22.50
2022-12-23T07:17:01.882Z,20.60
2022-12-23T07:18:05.585Z,22.42
2022-12-23T07:19:08.231Z,22.17
2022-12-23T07:20:13.428Z,20.42
2022-12-23T07:21:21.550Z,22.70
2022-12-23T07:22:28.999Z,20.50
2022-12-23T07:23:31.481Z,25.33
2022-12-23T07:24:34.032Z,23.70
2022-12-23T07:25:36.367Z,22.88
2022-12-23T07:26:38.806Z,21.42
2022-12-23T07:27:41.252Z,20.63
2022-12-23T07:28:47.764Z,19.27
2022-12-23T07:29:50.148Z,19.88
2022-12-23T07:30:52.492Z,37.40
2022-12-23T07:31:54.945Z,37.83
2022-12-23T07:32:57.525Z,70.82
2022-12-23T07:34:00.114Z,53.03
2022-12-23T07:35:02.895Z,48.33
2022-12-23T07:36:05.852Z,45.08
2022-12-23T07:37:08.650Z,42.22
2022-12-23T07:38:11.401Z,34.25
2022-12-23T07:39:13.994Z,29.70
2022-12-23T07:40:16.710Z,26.33
2022-12-23T07:41:19.786Z,30.60
2022-12-23T07:42:44.074Z,24.42
2022-12-23T07:43:45.545Z,16.75
2022-12-23T07:44:48.211Z,17.73
2022-12-23T07:45:57.340Z,15.95
2022-12-23T07:47:02.269Z,14.38
2022-12-23T07:48:04.814Z,12.63
2022-12-23T07:49:07.458Z,14.65
2022-12-23T07:50:10.372Z,14.30
2022-12-23T07:51:13.298Z,23.90
2022-12-23T07:52:15.917Z,22.73
2022-12-23T07:53:18.194Z,45.13
2022-12-23T07:54:20.509Z,27.63
2022-12-23T07:55:23.201Z,25.88
2022-12-23T07:56:25.696Z,27.05
2022-12-23T07:57:29.325Z,25.60
2022-12-23T07:58:31.700Z,24.45
2022-12-23T07:59:34.022Z,24.60
2022-12-23T08:00:36.376Z,23.92
2022-12-23T08:01:38.870Z,22.80
2022-12-23T08:02:41.901Z,23.88
2022-12-23T08:03:44.494Z,21.20
2022-12-23T08:04:46.971Z,27.13
2022-12-23T08:06:03.780Z,22.38
2022-12-23T08:07:06.265Z,23.85
2022-12-23T08:08:08.741Z,22.10
2022-12-23T08:09:11.110Z,20.70
2022-12-23T08:10:13.499Z,20.98
2022-12-23T08:11:16.295Z,24.02
2022-12-23T08:12:18.651Z,21.83
2022-12-23T08:13:20.939Z,22.33
2022-12-23T08:14:23.318Z,20.10
2022-12-23T08:15:25.714Z,19.63
2022-12-23T08:16:28.106Z,19.15
2022-12-23T08:17:30.789Z,16.00
2022-12-23T08:18:36.136Z,17.13
2022-12-23T08:19:38.464Z,17.40
2022-12-23T08:20:40.827Z,15.95
2022-12-23T08:21:43.301Z,16.05
2022-12-23T08:22:45.582Z,14.73
2022-12-23T08:23:48.377Z,15.23
2022-12-23T08:24:50.791Z,16.70
2022-12-23T08:26:00.419Z,15.13
2022-12-23T08:27:02.713Z,17.50
2022-12-23T08:28:05.093Z,16.70
2022-12-23T08:29:07.422Z,15.48
2022-12-23T08:30:10.412Z,16.30
2022-12-23T08:31:18.819Z,16.02
2022-12-23T08:32:21.457Z,16.70
2022-12-23T08:33:23.833Z,18.20
2022-12-23T08:34:26.141Z,18.98
2022-12-23T08:35:28.507Z,17.27
2022-12-23T08:36:35.565Z,15.57
2022-12-23T08:37:37.906Z,16.88
2022-12-23T08:38:40.702Z,18.38
2022-12-23T08:39:44.316Z,21.60
2022-12-23T08:40:46.656Z,21.85
2022-12-23T08:41:49.213Z,17.58
2022-12-23T08:42:51.593Z,34.60
2022-12-23T08:43:54.037Z,41.75
2022-12-23T08:44:56.478Z,36.00
2022-12-23T08:45:59.025Z,31.67
2022-12-23T08:47:01.507Z,26.90
2022-12-23T08:48:04.675Z,22.75
2022-12-23T08:49:07.899Z,13.43
2022-12-23T08:50:11.955Z,10.60
2022-12-23T08:51:16.727Z,10.38
2022-12-23T08:52:19.784Z,8.05
2022-12-23T08:53:22.153Z,8.35
2022-12-23T08:54:25.123Z,6.10
2022-12-23T08:55:27.444Z,95.22
2022-12-23T08:56:33.507Z,24.60
2022-12-23T08:57:35.833Z,15.18
2022-12-23T08:58:40.068Z,12.15
2022-12-23T08:59:42.461Z,9.98
2022-12-23T09:00:45.082Z,15.52
2022-12-23T09:01:48.451Z,13.57
2022-12-23T09:02:51.071Z,9.15
2022-12-23T09:03:53.969Z,10.63
2022-12-23T09:04:56.359Z,10.77
2022-12-23T09:05:58.733Z,8.35
2022-12-23T09:07:01.018Z,7.15
2022-12-23T09:08:04.301Z,9.82
2022-12-23T09:09:07.375Z,8.80
2022-12-23T09:10:09.995Z,11.95
2022-12-23T09:11:14.916Z,9.52
2022-12-23T09:12:17.268Z,8.50
2022-12-23T09:13:27.711Z,5.90
2022-12-23T09:14:33.316Z,8.15
2022-12-23T09:15:38.682Z,7.75
2022-12-23T09:16:41.196Z,8.65
2022-12-23T09:17:44.568Z,7.35
2022-12-23T09:18:47.008Z,6.35
2022-12-23T09:19:52.911Z,8.45
2022-12-23T09:21:01.140Z,9.27
2022-12-23T09:22:03.431Z,7.03
2022-12-23T09:23:06.156Z,6.68
2022-12-23T09:24:08.604Z,8.27
2022-12-23T09:25:11.001Z,7.57
2022-12-23T09:26:22.925Z,6.50
2022-12-23T09:27:25.303Z,6.38
2022-12-23T09:28:27.657Z,7.03
2022-12-23T09:29:29.980Z,5.80
2022-12-23T09:30:32.511Z,5.97
2022-12-23T09:31:37.592Z,5.93
2022-12-23T09:32:40.330Z,7.35
2022-12-23T09:33:45.948Z,6.82
2022-12-23T09:34:48.268Z,5.70
2022-12-23T09:35:50.586Z,4.25
2022-12-23T09:36:55.435Z,4.25
2022-12-23T09:37:58.124Z,4.07
2022-12-23T09:39:00.889Z,6.32
2022-12-23T09:40:04.191Z,5.82
2022-12-23T09:41:16.823Z,5.70
2022-12-23T09:42:52.086Z,6.97
2022-12-23T09:44:31.177Z,10.25
2022-12-23T09:45:49.460Z,10.85
2022-12-23T09:46:56.579Z,13.60
2022-12-23T09:47:59.299Z,11.90
2022-12-23T09:49:12.284Z,11.90
2022-12-23T09:50:26.734Z,12.15
2022-12-23T09:51:30.656Z,12.82
2022-12-23T09:53:06.549Z,12.52
2022-12-23T09:54:18.265Z,12.65
2022-12-23T09:55:23.865Z,13.27
2022-12-23T09:56:37.962Z,12.48
2022-12-23T09:57:51.937Z,11.07
2022-12-23T09:59:19.677Z,10.88
2022-12-23T10:00:22.799Z,11.52
2022-12-23T10:01:53.997Z,11.65
2022-12-23T10:03:05.742Z,11.13
2022-12-23T10:04:23.817Z,10.80
2022-12-23T10:05:48.898Z,10.80
2022-12-23T10:07:16.912Z,10.80
2022-12-23T10:08:36.610Z,11.52
2022-12-23T10:09:42.907Z,9.32
2022-12-23T10:10:56.989Z,10.00
2022-12-23T10:12:01.166Z,12.35
2022-12-23T10:13:07.116Z,10.77
2022-12-23T10:14:24.754Z,10.40
2022-12-23T10:15:47.295Z,10.10
2022-12-23T10:16:55.568Z,9.32
2022-12-23T10:18:03.656Z,10.73
2022-12-23T10:19:32.406Z,10.85
2022-12-23T10:20:48.155Z,9.73
2022-12-23T10:22:02.450Z,8.40
2022-12-23T10:23:11.464Z,9.25
2022-12-23T10:24:34.248Z,9.10
2022-12-23T10:25:43.651Z,8.93
2022-12-23T10:26:57.754Z,10.10
2022-12-23T10:28:00.123Z,10.02
2022-12-23T10:29:19.706Z,9.75
2022-12-23T10:30:56.857Z,10.25
2022-12-23T10:32:26.245Z,10.43
2022-12-23T10:33:46.908Z,9.32
2022-12-23T10:35:12.197Z,9.35
2022-12-23T10:37:02.809Z,9.25
2022-12-23T10:38:32.857Z,8.55
2022-12-23T10:40:07.464Z,9.48
2022-12-23T10:41:38.148Z,8.75
2022-12-23T10:43:04.248Z,131.63
2022-12-23T10:44:32.899Z,54.75
2022-12-23T10:45:51.577Z,308.00
2022-12-23T10:47:18.197Z,98.65
2022-12-23T10:48:27.768Z,113.70
2022-12-23T10:49:51.612Z,75.00
2022-12-23T10:51:04.686Z,55.85
2022-12-23T10:52:13.603Z,39.35
2022-12-23T10:53:37.149Z,38.85
2022-12-23T10:54:41.483Z,27.88
2022-12-23T10:55:45.227Z,26.13
2022-12-23T10:56:47.999Z,28.17
2022-12-23T10:57:51.925Z,24.05
2022-12-23T10:58:57.825Z,22.25
2022-12-23T11:00:00.227Z,21.15
2022-12-23T11:01:14.142Z,21.48
2022-12-23T11:02:54.163Z,21.70
2022-12-23T11:04:18.207Z,20.80
2022-12-23T11:05:27.485Z,19.85
2022-12-23T11:06:36.780Z,20.38
2022-12-23T11:07:45.212Z,19.33
2022-12-23T11:08:48.228Z,19.13
2022-12-23T11:10:13.141Z,21.20
2022-12-23T11:11:15.628Z,20.90
2022-12-23T11:12:23.566Z,19.15
2022-12-23T11:13:38.454Z,20.85
2022-12-23T11:14:58.809Z,19.95
2022-12-23T11:16:24.724Z,20.67
2022-12-23T11:17:29.957Z,15.20
2022-12-23T11:18:35.107Z,18.55
2022-12-23T11:19:41.524Z,18.95
2022-12-23T11:20:46.204Z,17.90
2022-12-23T11:21:56.583Z,18.63
2022-12-23T11:23:04.120Z,20.00
2022-12-23T11:24:19.961Z,19.17
2022-12-23T11:25:25.400Z,17.73
2022-12-23T11:26:27.792Z,19.60
2022-12-23T11:27:30.529Z,19.20
2022-12-23T11:28:36.964Z,19.50
2022-12-23T11:29:44.578Z,18.50
2022-12-23T11:30:56.357Z,17.73
2022-12-23T11:32:00.388Z,18.40
2022-12-23T11:33:03.341Z,18.17
2022-12-23T11:34:13.314Z,18.58
2022-12-23T11:35:27.318Z,19.20
2022-12-23T11:36:31.143Z,18.60
2022-12-23T11:37:43.220Z,18.52
2022-12-23T11:39:26.445Z,17.45
2022-12-23T11:40:33.598Z,18.02
2022-12-23T11:41:47.869Z,17.40
2022-12-23T11:42:55.915Z,16.92
2022-12-23T11:44:07.193Z,23.10
2022-12-23T11:45:09.580Z,18.30
2022-12-23T11:46:19.035Z,18.38
2022-12-23T11:47:25.971Z,18.27
2022-12-23T11:48:30.405Z,17.88
2022-12-23T11:49:32.739Z,18.13
2022-12-23T11:50:41.196Z,17.88
2022-12-23T11:52:05.072Z,16.90
2022-12-23T11:53:23.076Z,16.92
2022-12-23T11:54:25.554Z,15.07
2022-12-23T11:55:32.845Z,16.55
2022-12-23T11:56:39.360Z,16.00
2022-12-23T11:57:44.424Z,17.65
2022-12-23T11:58:48.505Z,16.27
2022-12-23T11:59:57.815Z,16.33
2022-12-23T12:01:06.698Z,15.52
2022-12-23T12:02:24.244Z,17.55
2022-12-23T12:03:31.544Z,14.30
2022-12-23T12:04:36.144Z,15.73
2022-12-23T12:05:41.412Z,16.92
2022-12-23T12:06:49.756Z,15.93
2022-12-23T12:08:03.523Z,17.10
2022-12-23T12:09:06.695Z,14.73
2022-12-23T12:10:21.097Z,18.10
2022-12-23T12:11:29.171Z,16.67
2022-12-23T12:12:33.012Z,15.10
2022-12-23T12:13:41.021Z,14.50
2022-12-23T12:14:58.536Z,15.55
2022-12-23T12:16:15.725Z,15.65
2022-12-23T12:17:32.758Z,14.70
2022-12-23T12:18:36.031Z,12.93
2022-12-23T12:19:53.906Z,13.43
2022-12-23T12:21:03.055Z,11.70
2022-12-23T12:22:14.589Z,12.90
2022-12-23T12:23:36.408Z,12.75
2022-12-23T12:24:44.417Z,10.85
2022-12-23T12:26:00.635Z,14.60
2022-12-23T12:27:06.454Z,14.25
2022-12-23T12:28:25.214Z,13.75
2022-12-23T12:29:35.801Z,11.90
2022-12-23T12:30:44.418Z,12.10
2022-12-23T12:31:54.132Z,12.07
2022-12-23T12:33:22.867Z,12.43
2022-12-23T12:34:37.008Z,11.35
2022-12-23T12:35:49.418Z,11.23
2022-12-23T12:37:12.348Z,11.65
2022-12-23T12:38:23.360Z,12.73
2022-12-23T12:39:37.233Z,11.88
2022-12-23T12:40:44.961Z,12.23
2022-12-23T12:41:57.275Z,11.98
2022-12-23T12:43:18.846Z,11.43
2022-12-23T12:44:34.507Z,11.13
2022-12-23T12:45:42.764Z,12.27
2022-12-23T12:47:04.126Z,11.20
2022-12-23T12:48:58.749Z,12.88
2022-12-23T12:50:06.612Z,11.00
2022-12-23T12:51:31.553Z,11.60
2022-12-23T12:52:41.058Z,11.90
2022-12-23T12:54:26.833Z,10.90
2022-12-23T12:55:36.362Z,11.50
2022-12-23T12:57:05.805Z,11.80
2022-12-23T12:58:27.327Z,11.40
2022-12-23T12:59:33.675Z,11.93
2022-12-23T13:00:50.959Z,11.95
2022-12-23T13:02:20.547Z,11.85
2022-12-23T13:03:58.120Z,11.75
2022-12-23T13:05:18.758Z,12.05
2022-12-23T13:06:40.742Z,12.40
2022-12-23T13:08:12.981Z,12.02
2022-12-23T13:09:25.380Z,11.70
2022-12-23T13:10:51.535Z,10.90
2022-12-23T13:12:18.988Z,11.02
2022-12-23T13:14:02.622Z,11.05
2022-12-23T13:15:36.838Z,11.90
2022-12-23T13:17:16.139Z,12.80
2022-12-23T13:18:43.592Z,11.55
2022-12-23T13:20:01.862Z,11.00
2022-12-23T13:21:43.253Z,11.05
2022-12-23T13:22:48.271Z,10.65
2022-12-23T13:24:19.732Z,11.60
2022-12-23T13:25:30.361Z,11.88
2022-12-23T13:27:07.490Z,12.38
2022-12-23T13:28:40.541Z,12.63
2022-12-23T13:29:57.964Z,11.80
2022-12-23T13:31:07.968Z,11.68
2022-12-23T13:32:49.950Z,11.18
2022-12-23T13:33:57.161Z,10.57
2022-12-23T13:35:18.935Z,12.18
2022-12-23T13:36:47.665Z,11.20
2022-12-23T13:38:17.420Z,11.75
2022-12-23T13:40:03.225Z,10.98
2022-12-23T13:41:14.572Z,10.82
2022-12-23T13:42:34.601Z,11.40
2022-12-23T13:43:40.883Z,12.20
2022-12-23T13:44:44.607Z,11.40
2022-12-23T13:45:47.964Z,12.00
2022-12-23T13:47:22.526Z,11.20
2022-12-23T13:48:36.615Z,10.90
2022-12-23T13:49:47.579Z,11.00
2022-12-23T13:51:16.049Z,11.90
2022-12-23T13:52:55.071Z,11.40
2022-12-23T13:54:10.019Z,10.65
2022-12-23T13:55:48.788Z,9.80
2022-12-23T13:57:08.393Z,10.95
2022-12-23T13:58:23.463Z,10.85
2022-12-23T13:59:41.701Z,10.20
2022-12-23T14:00:44.728Z,10.63
2022-12-23T14:01:49.114Z,10.90
2022-12-23T14:03:00.764Z,11.88
2022-12-23T14:04:32.937Z,10.60
2022-12-23T14:05:45.238Z,11.23
2022-12-23T14:06:48.388Z,10.75
2022-12-23T14:07:50.865Z,10.18
2022-12-23T14:08:54.800Z,9.80
2022-12-23T14:10:12.667Z,12.38
2022-12-23T14:11:27.680Z,11.10
2022-12-23T14:12:35.978Z,10.43
2022-12-23T14:13:44.925Z,10.25
2022-12-23T14:15:21.013Z,10.85
2022-12-23T14:16:47.570Z,9.88
2022-12-23T14:18:28.118Z,9.90
2022-12-23T14:20:03.215Z,11.15
2022-12-23T14:21:33.069Z,13.45
2022-12-23T14:22:53.422Z,12.75
2022-12-23T14:24:04.011Z,12.32
2022-12-23T14:25:21.409Z,12.75
2022-12-23T14:26:36.445Z,12.43
2022-12-23T14:28:01.136Z,12.80
2022-12-23T14:29:31.756Z,11.35
2022-12-23T14:30:45.808Z,13.82
2022-12-23T14:31:56.514Z,14.18
2022-12-23T14:33:01.612Z,12.88
2022-12-23T14:34:17.728Z,12.23
2022-12-23T14:35:20.071Z,11.55
2022-12-23T14:36:26.620Z,10.63
2022-12-23T14:37:33.159Z,10.32
2022-12-23T14:38:35.595Z,9.85
2022-12-23T14:39:37.980Z,9.80
2022-12-23T14:40:43.071Z,8.88
2022-12-23T14:41:52.733Z,10.82
2022-12-23T14:43:22.984Z,8.95
2022-12-23T14:44:37.675Z,9.15
2022-12-23T14:45:43.770Z,10.27
2022-12-23T14:46:46.056Z,10.25
2022-12-23T14:47:48.465Z,8.90
2022-12-23T14:49:37.469Z,9.73
2022-12-23T14:51:37.800Z,9.40
2022-12-23T14:52:58.743Z,8.82
2022-12-23T14:54:01.106Z,9.20
2022-12-23T14:55:31.206Z,8.80
2022-12-23T14:56:39.843Z,10.18
2022-12-23T14:57:43.325Z,8.80
2022-12-23T14:58:54.193Z,9.73
2022-12-23T15:00:02.539Z,10.10
2022-12-23T15:01:29.211Z,8.88
2022-12-23T15:02:36.518Z,9.75
2022-12-23T15:03:55.943Z,8.73
2022-12-23T15:05:03.412Z,29.77
2022-12-23T15:06:07.486Z,15.82
2022-12-23T15:07:30.989Z,13.52
2022-12-23T15:08:42.471Z,11.00
2022-12-23T15:10:00.272Z,11.50
2022-12-23T15:11:04.252Z,10.63